createdAt,value
2023-05-19T00:01:10.316Z,7.10
2023-05-19T00:03:50.657Z,6.85
2023-05-19T00:06:26.404Z,6.60
2023-05-19T00:09:05.864Z,7.70
2023-05-19T00:11:37.920Z,7.03
2023-05-19T00:14:10.893Z,7.32
2023-05-19T00:16:41.720Z,6.75
2023-05-19T00:19:13.401Z,6.47
2023-05-19T00:21:44.019Z,6.75
2023-05-19T00:24:14.558Z,7.38
2023-05-19T00:26:44.863Z,6.20
2023-05-19T00:29:19.669Z,6.07
2023-05-19T00:31:50.281Z,7.10
2023-05-19T00:34:20.579Z,6.65
2023-05-19T00:36:51.185Z,7.30
2023-05-19T00:39:21.702Z,6.95
2023-05-19T00:41:52.799Z,6.03
2023-05-19T00:44:23.156Z,6.93
2023-05-19T00:46:53.684Z,7.10
2023-05-19T00:49:24.162Z,6.88
2023-05-19T00:51:54.957Z,7.53
2023-05-19T00:54:28.608Z,6.68
2023-05-19T00:57:00.735Z,7.10
2023-05-19T00:59:31.253Z,7.07
2023-05-19T01:02:04.072Z,7.30
2023-05-19T01:04:37.536Z,6.72
2023-05-19T01:07:08.474Z,7.35
2023-05-19T01:09:38.992Z,6.80
2023-05-19T01:12:11.933Z,7.03
2023-05-19T01:14:43.086Z,7.38
2023-05-19T01:17:32.345Z,7.45
2023-05-19T01:20:15.974Z,6.85
2023-05-19T01:23:16.459Z,7.40
2023-05-19T01:26:06.524Z,7.50
2023-05-19T01:28:55.188Z,8.20
2023-05-19T01:31:28.389Z,7.53
2023-05-19T01:34:00.021Z,7.45
2023-05-19T01:36:32.365Z,7.78
2023-05-19T01:39:04.735Z,8.00
2023-05-19T01:41:36.177Z,7.03
2023-05-19T01:44:06.956Z,7.28
2023-05-19T01:46:38.170Z,7.93
2023-05-19T01:49:09.512Z,7.60
2023-05-19T01:51:40.433Z,7.50
2023-05-19T01:54:10.736Z,7.05
2023-05-19T01:56:51.342Z,7.43
2023-05-19T01:59:53.796Z,6.60
2023-05-19T02:02:36.090Z,6.43
2023-05-19T02:05:15.600Z,6.72
2023-05-19T02:08:06.908Z,7.30
2023-05-19T02:10:40.859Z,7.07
2023-05-19T02:18:19.130Z,7.05
2023-05-19T02:20:53.758Z,7.53
2023-05-19T02:23:24.893Z,8.43
2023-05-19T02:25:55.227Z,7.28
2023-05-19T02:28:29.549Z,7.25
2023-05-19T02:31:01.425Z,7.30
2023-05-19T02:33:32.735Z,6.72
2023-05-19T02:36:03.097Z,7.38
2023-05-19T02:38:33.875Z,7.15
2023-05-19T02:41:04.567Z,6.65
2023-05-19T02:43:34.996Z,7.50
2023-05-19T02:46:05.326Z,7.43
2023-05-19T02:48:35.595Z,7.50
2023-05-19T02:51:06.622Z,7.40
2023-05-19T02:53:37.114Z,7.63
2023-05-19T02:56:07.732Z,6.78
2023-05-19T02:58:38.107Z,6.90
2023-05-19T03:01:10.725Z,6.63
2023-05-19T03:03:41.040Z,7.00
2023-05-19T03:06:11.519Z,7.40
2023-05-19T03:08:42.492Z,6.72
2023-05-19T03:11:13.013Z,6.55
2023-05-19T03:13:43.632Z,6.20
2023-05-19T03:16:15.277Z,5.97
2023-05-19T03:18:45.748Z,6.60
2023-05-19T03:21:16.135Z,6.47
2023-05-19T03:23:46.734Z,6.78
2023-05-19T03:26:17.117Z,6.03
2023-05-19T03:28:47.940Z,7.53
2023-05-19T03:31:18.262Z,6.22
2023-05-19T03:33:48.674Z,6.90
2023-05-19T03:36:19.144Z,7.03
2023-05-19T03:38:49.692Z,6.00
2023-05-19T03:41:19.844Z,6.78
2023-05-19T03:43:50.591Z,7.22
2023-05-19T03:46:21.765Z,6.53
2023-05-19T03:49:20.804Z,5.97
2023-05-19T03:52:09.309Z,6.65
2023-05-19T03:54:59.896Z,6.20
2023-05-19T03:57:30.695Z,5.78
2023-05-19T04:00:01.408Z,6.95
2023-05-19T04:02:42.463Z,6.38
2023-05-19T04:05:13.495Z,6.47
2023-05-19T04:07:44.351Z,6.57
2023-05-19T04:10:15.079Z,6.05
2023-05-19T04:12:45.264Z,6.25
2023-05-19T04:15:15.710Z,6.15
2023-05-19T04:17:46.007Z,6.82
2023-05-19T04:20:17.761Z,6.07
2023-05-19T04:22:47.930Z,6.60
2023-05-19T04:25:18.226Z,5.57
2023-05-19T04:27:49.562Z,5.97
2023-05-19T04:30:23.364Z,6.20
2023-05-19T04:32:54.056Z,6.20
2023-05-19T04:35:24.767Z,5.90
2023-05-19T04:37:58.115Z,5.82
2023-05-19T04:40:32.607Z,6.10
2023-05-19T04:43:03.376Z,5.90
2023-05-19T04:45:35.358Z,6.32
2023-05-19T04:48:06.476Z,4.97
2023-05-19T04:50:39.780Z,5.57
2023-05-19T04:53:11.437Z,5.57
2023-05-19T04:55:42.220Z,5.35
2023-05-19T04:58:12.788Z,6.18
2023-05-19T05:00:43.067Z,5.30
2023-05-19T05:03:15.734Z,5.35
2023-05-19T05:05:46.262Z,5.35
2023-05-19T05:08:17.665Z,4.55
2023-05-19T05:10:48.095Z,5.65
2023-05-19T05:13:18.902Z,4.82
2023-05-19T05:15:49.669Z,4.88
2023-05-19T05:18:20.517Z,4.80
2023-05-19T05:20:51.133Z,5.72
2023-05-19T05:23:22.341Z,4.97
2023-05-19T05:25:53.502Z,4.97
2023-05-19T05:28:25.066Z,5.40
2023-05-19T05:30:57.593Z,4.20
2023-05-19T05:33:28.385Z,4.65
2023-05-19T05:35:58.725Z,4.78
2023-05-19T05:38:29.749Z,4.35
2023-05-19T05:41:00.378Z,4.82
2023-05-19T05:43:31.443Z,4.95
2023-05-19T05:46:05.352Z,4.70
2023-05-19T05:48:37.115Z,4.57
2023-05-19T05:51:08.879Z,5.60
2023-05-19T05:53:46.408Z,4.85
2023-05-19T05:56:18.544Z,5.32
2023-05-19T05:58:53.277Z,4.40
2023-05-19T06:01:25.111Z,5.30
2023-05-19T06:03:56.468Z,4.50
2023-05-19T06:06:27.279Z,4.45
2023-05-19T06:08:58.174Z,4.73
2023-05-19T06:11:29.929Z,4.10
2023-05-19T06:14:01.858Z,4.15
2023-05-19T06:16:49.939Z,4.65
2023-05-19T06:19:26.319Z,4.55
2023-05-19T06:21:58.381Z,4.45
2023-05-19T06:24:28.561Z,4.55
2023-05-19T06:26:58.946Z,4.35
2023-05-19T06:29:29.181Z,4.13
2023-05-19T06:32:04.941Z,3.85
2023-05-19T06:34:35.318Z,3.95
2023-05-19T06:37:05.671Z,3.85
2023-05-19T06:39:36.818Z,4.20
2023-05-19T06:42:07.310Z,4.25
2023-05-19T06:45:13.036Z,4.40
2023-05-19T06:47:43.778Z,4.50
2023-05-19T06:50:14.474Z,3.60
2023-05-19T06:52:45.803Z,3.92
2023-05-19T06:55:16.527Z,4.20
2023-05-19T06:57:46.906Z,4.00
2023-05-19T07:00:21.379Z,3.83
2023-05-19T07:02:55.900Z,4.18
2023-05-19T07:05:27.389Z,4.57
2023-05-19T07:08:00.639Z,4.05
2023-05-19T07:10:32.512Z,3.40
2023-05-19T07:13:03.158Z,3.92
2023-05-19T07:15:36.033Z,3.85
2023-05-19T07:18:07.071Z,3.88
2023-05-19T07:20:38.727Z,4.57
2023-05-19T07:23:08.895Z,4.25
2023-05-19T07:25:39.663Z,4.07
2023-05-19T07:28:09.795Z,3.90
2023-05-19T07:30:40.524Z,4.05
2023-05-19T07:33:10.706Z,3.90
2023-05-19T07:35:41.725Z,3.60
2023-05-19T07:38:12.516Z,3.70
2023-05-19T07:40:42.899Z,4.32
2023-05-19T07:43:13.083Z,3.88
2023-05-19T07:45:43.610Z,3.72
2023-05-19T07:48:14.039Z,3.67
2023-05-19T07:50:44.262Z,4.20
2023-05-19T07:53:14.400Z,3.60
2023-05-19T07:55:44.695Z,3.55
2023-05-19T07:58:14.826Z,3.42
2023-05-19T08:00:45.311Z,3.10
2023-05-19T08:03:18.979Z,3.50
2023-05-19T08:05:49.361Z,3.60
2023-05-19T08:08:21.011Z,3.88
2023-05-19T08:10:51.281Z,3.13
2023-05-19T08:13:21.561Z,3.05
2023-05-19T08:15:51.917Z,3.00
2023-05-19T08:18:22.569Z,3.17
2023-05-19T08:20:52.756Z,3.08
2023-05-19T08:23:23.688Z,3.15
2023-05-19T08:25:54.184Z,3.20
2023-05-19T08:28:24.464Z,3.40
2023-05-19T08:30:54.835Z,3.05
2023-05-19T08:33:25.307Z,3.10
2023-05-19T08:35:56.681Z,3.05
2023-05-19T08:38:27.950Z,3.15
2023-05-19T08:40:59.333Z,4.35
2023-05-19T08:43:30.185Z,3.25
2023-05-19T08:46:01.974Z,3.15
2023-05-19T08:48:35.076Z,3.40
2023-05-19T08:51:11.259Z,3.00
2023-05-19T08:53:46.542Z,3.58
2023-05-19T08:56:19.913Z,3.20
2023-05-19T08:58:53.275Z,2.90
2023-05-19T09:01:25.260Z,3.13
2023-05-19T09:03:55.614Z,2.65
2023-05-19T09:06:26.363Z,2.65
2023-05-19T09:08:57.006Z,3.03
2023-05-19T09:11:27.372Z,3.00
2023-05-19T09:13:57.737Z,2.55
2023-05-19T09:16:30.206Z,3.00
2023-05-19T09:19:02.403Z,3.08
2023-05-19T09:21:33.149Z,2.70
2023-05-19T09:24:11.308Z,2.92
2023-05-19T09:26:43.154Z,3.13
2023-05-19T09:29:14.311Z,3.47
2023-05-19T09:32:01.825Z,2.83
2023-05-19T09:34:32.838Z,2.92
2023-05-19T09:37:03.363Z,3.23
2023-05-19T09:39:33.993Z,2.90
2023-05-19T09:42:08.041Z,2.80
2023-05-19T09:44:38.534Z,3.33
2023-05-19T09:47:11.720Z,3.15
2023-05-19T09:49:48.977Z,3.40
2023-05-19T09:52:19.545Z,3.55
2023-05-19T09:54:52.930Z,3.67
2023-05-19T09:57:30.731Z,2.70
2023-05-19T10:00:02.358Z,2.97
2023-05-19T10:02:35.080Z,3.22
2023-05-19T10:05:07.231Z,2.90
2023-05-19T10:07:38.991Z,3.20
2023-05-19T10:10:30.124Z,2.92
2023-05-19T10:13:01.757Z,2.97
2023-05-19T10:15:34.519Z,3.83
2023-05-19T10:18:13.131Z,3.75
2023-05-19T10:20:44.058Z,3.50
2023-05-19T10:23:14.335Z,3.53
2023-05-19T10:25:44.980Z,3.53
2023-05-19T10:28:18.927Z,3.65
2023-05-19T10:30:53.613Z,4.45
2023-05-19T10:33:43.795Z,3.35
2023-05-19T10:36:40.968Z,3.17
2023-05-19T10:39:39.333Z,3.40
2023-05-19T10:42:16.120Z,3.70
2023-05-19T10:45:05.291Z,3.28
2023-05-19T10:47:36.205Z,3.63
2023-05-19T10:50:07.976Z,3.80
2023-05-19T10:52:40.702Z,3.80
2023-05-19T10:55:18.896Z,3.65
2023-05-19T10:57:58.458Z,3.92
2023-05-19T11:00:33.129Z,4.15
2023-05-19T11:03:17.349Z,4.38
2023-05-19T11:05:47.962Z,3.95
2023-05-19T11:08:19.943Z,4.30
2023-05-19T11:10:54.193Z,4.25
2023-05-19T11:13:31.044Z,4.25
2023-05-19T11:16:08.584Z,4.32
2023-05-19T11:18:39.657Z,4.60
2023-05-19T11:21:09.970Z,4.47
2023-05-19T11:23:41.253Z,4.43
2023-05-19T11:26:11.685Z,4.88
2023-05-19T11:28:43.438Z,4.53
2023-05-19T11:31:13.921Z,5.03
2023-05-19T11:33:44.290Z,4.63
2023-05-19T11:36:14.870Z,4.65
2023-05-19T11:38:46.757Z,4.72
2023-05-19T11:41:19.508Z,4.35
2023-05-19T11:43:51.120Z,4.32
2023-05-19T11:46:21.441Z,3.83
2023-05-19T11:48:51.895Z,4.75
2023-05-19T11:51:24.009Z,4.35
2023-05-19T11:53:55.501Z,4.05
2023-05-19T11:56:28.569Z,4.57
2023-05-19T11:58:58.808Z,5.68
2023-05-19T12:01:30.689Z,4.72
2023-05-19T12:04:01.108Z,4.63
2023-05-19T12:06:31.757Z,5.95
2023-05-19T12:09:03.158Z,6.10
2023-05-19T12:11:33.748Z,6.55
2023-05-19T12:14:04.637Z,6.72
2023-05-19T12:16:36.621Z,7.82
2023-05-19T12:19:10.923Z,7.95
2023-05-19T12:21:41.347Z,7.78
2023-05-19T12:24:12.465Z,7.57
2023-05-19T12:26:42.862Z,6.95
2023-05-19T12:29:15.319Z,6.03
2023-05-19T12:31:49.177Z,6.70
2023-05-19T12:34:19.564Z,7.25
2023-05-19T12:36:49.852Z,5.75
2023-05-19T12:39:21.464Z,6.10
2023-05-19T12:41:51.852Z,6.35
2023-05-19T12:44:22.016Z,5.72
2023-05-19T12:46:54.392Z,6.93
2023-05-19T12:51:55.275Z,21.15
2023-05-19T12:54:25.642Z,21.98
2023-05-19T12:56:55.965Z,47.70
2023-05-19T12:59:38.271Z,22.25
2023-05-19T13:02:09.441Z,46.78
2023-05-19T13:04:39.630Z,52.63
2023-05-19T13:07:10.932Z,18.45
2023-05-19T13:09:41.091Z,10.27
2023-05-19T13:12:11.415Z,14.38
2023-05-19T13:14:43.592Z,10.20
2023-05-19T13:17:13.931Z,7.80
2023-05-19T13:19:44.348Z,12.20
2023-05-19T13:22:14.731Z,8.85
2023-05-19T13:24:45.092Z,6.82
2023-05-19T13:27:15.378Z,7.03
2023-05-19T13:29:45.646Z,7.45
2023-05-19T13:32:15.973Z,7.20
2023-05-19T13:34:46.074Z,7.47
2023-05-19T13:37:16.228Z,6.35
2023-05-19T13:39:46.396Z,5.63
2023-05-19T13:42:18.592Z,5.60
2023-05-19T13:44:50.187Z,8.48
2023-05-19T13:47:20.450Z,9.18
2023-05-19T13:49:51.448Z,6.15
2023-05-19T13:52:23.093Z,6.20
2023-05-19T13:54:55.723Z,6.50
2023-05-19T13:57:27.526Z,5.65
2023-05-19T14:00:03.289Z,28.20
2023-05-19T14:02:43.583Z,27.13
2023-05-19T14:05:14.211Z,6.45
2023-05-19T14:07:45.771Z,5.38
2023-05-19T14:10:16.232Z,4.60
2023-05-19T14:13:12.294Z,5.18
2023-05-19T14:15:39.007Z,4.25
2023-05-19T14:20:41.544Z,4.47
2023-05-19T14:23:12.226Z,9.43
2023-05-19T14:25:42.683Z,5.28
2023-05-19T14:28:12.968Z,13.88
2023-05-19T14:30:43.507Z,19.98
2023-05-19T14:33:14.371Z,41.25
2023-05-19T14:35:45.644Z,6.38
2023-05-19T14:38:15.879Z,7.05
2023-05-19T14:40:47.963Z,6.57
2023-05-19T14:43:18.147Z,5.00
2023-05-19T14:45:48.466Z,4.43
2023-05-19T14:48:19.432Z,5.68
2023-05-19T14:50:49.903Z,5.95
2023-05-19T14:53:20.121Z,4.93
2023-05-19T14:55:50.952Z,4.35
2023-05-19T14:58:28.972Z,4.90
2023-05-19T15:03:30.624Z,4.97
2023-05-19T15:06:01.304Z,4.75
2023-05-19T15:08:31.536Z,4.38
2023-05-19T15:11:01.769Z,5.30
2023-05-19T15:13:32.151Z,5.10
2023-05-19T15:16:16.205Z,4.38
2023-05-19T15:18:47.671Z,5.05
2023-05-19T15:21:17.882Z,4.80
2023-05-19T15:23:48.318Z,4.32
2023-05-19T15:26:18.864Z,4.68
2023-05-19T15:28:49.371Z,4.78
2023-05-19T15:31:19.808Z,4.05
2023-05-19T15:33:50.219Z,4.43
2023-05-19T15:36:21.287Z,4.03
2023-05-19T15:38:52.068Z,3.92
2023-05-19T15:41:23.080Z,4.20
2023-05-19T15:43:54.712Z,4.20
2023-05-19T15:46:24.990Z,4.88
2023-05-19T15:48:55.360Z,4.03
2023-05-19T15:51:26.105Z,5.07
2023-05-19T15:53:57.208Z,4.32
2023-05-19T15:56:27.634Z,3.70
2023-05-19T15:58:58.061Z,3.75
2023-05-19T16:01:28.418Z,3.60
2023-05-19T16:04:03.385Z,3.67
2023-05-19T16:06:33.706Z,3.22
2023-05-19T16:09:04.129Z,3.15
2023-05-19T16:11:34.286Z,3.25
2023-05-19T16:14:04.656Z,4.10
2023-05-19T16:16:34.851Z,3.55
2023-05-19T16:19:05.159Z,2.88
2023-05-19T16:21:35.536Z,3.47
2023-05-19T16:24:06.067Z,3.38
2023-05-19T16:26:36.448Z,3.28
2023-05-19T16:29:06.730Z,3.40
2023-05-19T16:31:37.405Z,2.80
2023-05-19T16:34:07.759Z,3.10
2023-05-19T16:36:38.012Z,2.67
2023-05-19T16:39:08.495Z,2.63
2023-05-19T16:41:38.772Z,2.78
2023-05-19T16:44:09.091Z,2.38
2023-05-19T16:46:39.480Z,2.42
2023-05-19T16:49:10.441Z,2.50
2023-05-19T16:51:40.935Z,1.85
2023-05-19T16:54:11.217Z,2.22
2023-05-19T16:56:41.692Z,2.30
2023-05-19T16:59:12.023Z,1.90
2023-05-19T17:01:42.457Z,2.13
2023-05-19T17:04:13.143Z,2.85
2023-05-19T17:06:43.297Z,1.92
2023-05-19T17:09:14.119Z,1.75
2023-05-19T17:11:44.300Z,1.80
2023-05-19T17:14:14.826Z,2.33
2023-05-19T17:16:45.144Z,1.80
2023-05-19T17:19:16.268Z,1.90
2023-05-19T17:21:47.331Z,2.22
2023-05-19T17:24:17.731Z,1.95
2023-05-19T17:26:47.904Z,2.10
2023-05-19T17:29:18.090Z,1.77
2023-05-19T17:31:48.434Z,2.13
2023-05-19T17:34:18.685Z,2.13
2023-05-19T17:36:50.791Z,2.20
2023-05-19T17:39:21.529Z,1.40
2023-05-19T17:41:51.973Z,2.05
2023-05-19T17:44:22.635Z,2.22
2023-05-19T17:46:53.677Z,2.03
2023-05-19T17:49:25.623Z,2.13
2023-05-19T17:51:56.513Z,2.35
2023-05-19T17:54:27.651Z,1.90
2023-05-19T17:57:00.456Z,1.90
2023-05-19T17:59:31.766Z,1.63
2023-05-19T18:02:02.330Z,1.70
2023-05-19T18:04:33.121Z,1.83
2023-05-19T18:07:07.031Z,1.58
2023-05-19T18:09:42.174Z,1.90
2023-05-19T18:12:12.272Z,1.60
2023-05-19T18:14:42.476Z,1.83
2023-05-19T18:17:12.572Z,1.60
2023-05-19T18:19:42.672Z,1.50
2023-05-19T18:22:14.179Z,1.80
2023-05-19T18:24:44.356Z,1.58
2023-05-19T18:27:14.590Z,1.30
2023-05-19T18:29:44.540Z,1.63
2023-05-19T18:32:16.728Z,1.42
2023-05-19T18:34:47.331Z,1.40
2023-05-19T18:37:17.444Z,1.25
2023-05-19T18:39:48.229Z,1.20
2023-05-19T18:42:18.515Z,1.30
2023-05-19T18:44:48.914Z,1.50
2023-05-19T18:47:23.977Z,1.23
2023-05-19T18:49:54.399Z,1.50
2023-05-19T18:52:25.437Z,1.38
2023-05-19T18:54:55.929Z,1.25
2023-05-19T18:57:26.016Z,1.30
2023-05-19T18:59:56.127Z,1.60
2023-05-19T19:02:26.405Z,1.30
2023-05-19T19:04:56.708Z,1.17
2023-05-19T19:07:28.904Z,1.60
2023-05-19T19:12:28.352Z,1.50
2023-05-19T19:14:58.691Z,1.60
2023-05-19T19:17:28.869Z,1.95
2023-05-19T19:19:59.112Z,1.38
2023-05-19T19:22:29.473Z,1.40
2023-05-19T19:24:59.683Z,1.67
2023-05-19T19:27:32.596Z,1.70
2023-05-19T19:30:03.181Z,1.20
2023-05-19T19:32:34.632Z,1.40
2023-05-19T19:35:04.859Z,1.50
2023-05-19T19:37:35.141Z,1.98
2023-05-19T19:40:05.764Z,1.67
2023-05-19T19:42:36.281Z,2.90
2023-05-19T19:45:07.582Z,1.92
2023-05-19T19:47:37.919Z,2.28
2023-05-19T19:50:08.762Z,1.85
2023-05-19T19:52:40.935Z,2.13
2023-05-19T19:55:11.861Z,2.42
2023-05-19T19:57:42.170Z,2.63
2023-05-19T20:00:13.221Z,12.30
2023-05-19T20:02:55.673Z,56.35
2023-05-19T20:05:33.111Z,30.58
2023-05-19T20:08:03.527Z,18.73
2023-05-19T20:10:35.079Z,12.05
2023-05-19T20:13:05.682Z,12.60
2023-05-19T20:15:35.878Z,14.02
2023-05-19T20:18:06.274Z,22.40
2023-05-19T20:20:36.630Z,22.13
2023-05-19T20:23:06.871Z,22.13
2023-05-19T20:25:58.417Z,40.40
2023-05-19T20:28:33.673Z,29.60
2023-05-19T20:31:04.041Z,21.02
2023-05-19T20:33:34.211Z,15.30
2023-05-19T20:36:04.582Z,15.00
2023-05-19T20:38:34.760Z,35.90
2023-05-19T20:41:05.206Z,36.90
2023-05-19T20:43:35.934Z,27.90
2023-05-19T20:46:06.258Z,22.90
2023-05-19T20:48:36.523Z,22.58
2023-05-19T20:51:06.983Z,24.05
2023-05-19T20:53:37.843Z,15.70
2023-05-19T20:56:11.580Z,8.73
2023-05-19T20:58:42.258Z,13.35
2023-05-19T21:01:12.582Z,14.68
2023-05-19T21:03:42.948Z,12.45
2023-05-19T21:06:13.307Z,10.15
2023-05-19T21:08:43.541Z,9.52
2023-05-19T21:11:13.821Z,7.55
2023-05-19T21:13:44.630Z,7.68
2023-05-19T21:16:15.886Z,7.30
2023-05-19T21:18:46.031Z,6.50
2023-05-19T21:21:17.061Z,5.78
2023-05-19T21:23:47.387Z,5.35
2023-05-19T21:26:17.978Z,5.05
2023-05-19T21:28:49.202Z,4.93
2023-05-19T21:31:21.257Z,5.43
2023-05-19T21:33:51.610Z,4.10
2023-05-19T21:36:25.202Z,3.90
2023-05-19T21:38:55.820Z,4.25
2023-05-19T21:41:26.682Z,3.78
2023-05-19T21:43:57.270Z,3.50
2023-05-19T21:46:31.998Z,4.07
2023-05-19T21:49:02.760Z,3.60
2023-05-19T21:51:33.749Z,4.55
2023-05-19T21:54:05.802Z,3.30
2023-05-19T21:56:39.033Z,3.53
2023-05-19T21:59:10.815Z,3.13
2023-05-19T22:01:43.913Z,3.13
2023-05-19T22:04:16.593Z,3.88
2023-05-19T22:07:12.414Z,2.80
2023-05-19T22:09:43.356Z,3.35
2023-05-19T22:12:16.143Z,3.47
2023-05-19T22:14:47.239Z,3.22
2023-05-19T22:17:18.494Z,3.90
2023-05-19T22:19:49.466Z,3.88
2023-05-19T22:22:20.652Z,3.75
2023-05-19T22:27:22.896Z,3.63
2023-05-19T22:29:55.254Z,4.95
2023-05-19T22:32:29.333Z,4.43
2023-05-19T22:37:33.830Z,4.68
2023-05-19T22:40:04.834Z,5.00
2023-05-19T22:42:36.090Z,4.18
2023-05-19T22:45:07.855Z,4.82
2023-05-19T22:47:39.374Z,4.22
2023-05-19T22:50:13.724Z,4.40
2023-05-19T22:52:45.775Z,4.47
2023-05-19T22:55:16.659Z,4.47
2023-05-19T22:57:50.696Z,4.43
2023-05-19T23:00:23.537Z,4.43
2023-05-19T23:02:55.044Z,4.40
2023-05-19T23:05:46.114Z,3.70
2023-05-19T23:08:37.185Z,4.13
2023-05-19T23:11:09.414Z,3.80
2023-05-19T23:16:11.218Z,3.80
2023-05-19T23:18:42.865Z,4.07
2023-05-19T23:21:18.001Z,3.25
2023-05-19T23:23:49.233Z,3.70
2023-05-19T23:26:22.124Z,3.90
2023-05-19T23:28:53.395Z,3.30
2023-05-19T23:31:24.404Z,3.30
2023-05-19T23:33:56.184Z,3.85
2023-05-19T23:36:27.222Z,3.78
2023-05-19T23:38:59.167Z,3.83
2023-05-19T23:41:33.208Z,4.38
2023-05-19T23:44:04.571Z,4.18
2023-05-19T23:46:35.695Z,4.18
2023-05-19T23:49:08.945Z,4.18
2023-05-19T23:51:39.212Z,3.78
2023-05-19T23:54:09.646Z,3.47
2023-05-19T23:56:39.939Z,4.15
2023-05-19T23:59:10.147Z,3.75
